Time;durP1;ratioP1;P1;durP2;ratioP2;P2;SDS_P1;SDS_P2;PMS_P1;PMS_P2;Temp;Humidity;BMP_temperature;BMP_pressure;BME280_temperature;BME280_humidity;BME280_pressure;Samples;Min_cycle;Max_cycle;Signal;HPM_P1;HPM_P2
2022/11/02 00:00:44;;;;;;;70.87;10.73;;;10.10;1.00;;;;;;5050737;28;20941;-71
2022/11/02 00:03:11;;;;;;;75.30;11.10;;;10.10;1.00;;;;;;5051158;28;20979;-70
2022/11/02 00:05:38;;;;;;;67.77;9.30;;;10.10;1.00;;;;;;5051542;28;20749;-71
2022/11/02 00:08:05;;;;;;;66.97;10.85;;;10.10;1.00;;;;;;5051048;28;20479;-71
2022/11/02 00:10:32;;;;;;;69.27;11.50;;;10.10;1.00;;;;;;5050776;28;20206;-70
2022/11/02 00:12:59;;;;;;;69.77;10.50;;;10.00;1.00;;;;;;5051559;28;20456;-71
2022/11/02 00:15:28;;;;;;;65.73;10.73;;;10.00;1.00;;;;;;5051509;28;20452;-71
2022/11/02 00:17:59;;;;;;;66.80;9.30;;;9.90;1.00;;;;;;5051359;28;20649;-70
2022/11/02 00:20:26;;;;;;;65.57;9.70;;;9.90;1.00;;;;;;5050992;28;20463;-70
2022/11/02 00:22:56;;;;;;;66.77;9.47;;;10.00;1.00;;;;;;5051096;28;20509;-70
2022/11/02 00:25:25;;;;;;;70.43;10.30;;;9.90;1.00;;;;;;5051435;28;20486;-71
2022/11/02 00:27:52;;;;;;;64.70;8.87;;;9.90;1.00;;;;;;5051180;28;20816;-70
2022/11/02 00:30:19;;;;;;;64.77;9.87;;;9.90;1.00;;;;;;5050294;28;20459;-70
2022/11/02 00:32:46;;;;;;;68.50;9.60;;;9.90;1.00;;;;;;5051128;28;20455;-71
2022/11/02 00:35:14;;;;;;;66.87;8.90;;;9.80;1.00;;;;;;5050854;28;20460;-70
2022/11/02 00:37:41;;;;;;;65.67;9.50;;;9.70;1.00;;;;;;5053546;28;20469;-71
2022/11/02 00:40:09;;;;;;;70.37;9.30;;;9.80;1.00;;;;;;5053833;28;20948;-71
2022/11/02 00:42:36;;;;;;;65.47;9.73;;;9.80;1.00;;;;;;5054647;28;20968;-70
2022/11/02 00:45:03;;;;;;;69.23;9.17;;;9.80;1.00;;;;;;5054697;28;20491;-72
2022/11/02 00:47:30;;;;;;;66.30;9.87;;;9.80;1.00;;;;;;5054425;28;20468;-70
2022/11/02 00:49:57;;;;;;;66.80;9.90;;;9.80;1.00;;;;;;5053546;28;20479;-70
2022/11/02 00:52:25;;;;;;;67.60;10.17;;;9.90;1.00;;;;;;5054519;28;20456;-71
2022/11/02 00:54:52;;;;;;;65.57;9.67;;;9.90;1.00;;;;;;5054520;28;20448;-73
2022/11/02 00:57:19;;;;;;;67.60;8.80;;;9.80;1.00;;;;;;5054177;28;20476;-73
2022/11/02 00:59:45;;;;;;;65.43;10.10;;;9.80;1.00;;;;;;5053582;28;20838;-70
2022/11/02 01:02:12;;;;;;;65.77;9.60;;;9.80;1.00;;;;;;5054323;28;20460;-70
2022/11/02 01:04:39;;;;;;;66.00;9.53;;;9.80;1.00;;;;;;5053983;28;20484;-70
2022/11/02 01:07:06;;;;;;;69.00;8.70;;;9.70;1.00;;;;;;5054264;28;20467;-70
2022/11/02 01:09:34;;;;;;;66.47;10.20;;;9.60;1.00;;;;;;5053452;28;20462;-70
2022/11/02 01:12:01;;;;;;;65.40;8.83;;;9.50;1.00;;;;;;5054011;28;20939;-71
2022/11/02 01:14:28;;;;;;;67.10;9.00;;;9.60;1.00;;;;;;5053923;28;20445;-70
2022/11/02 01:16:56;;;;;;;65.90;9.50;;;9.60;1.00;;;;;;5053805;28;20468;-71
2022/11/02 01:19:23;;;;;;;66.90;8.73;;;9.50;1.00;;;;;;5053057;28;20976;-71
2022/11/02 01:21:50;;;;;;;65.30;9.53;;;9.60;1.00;;;;;;5053982;28;20440;-70
2022/11/02 01:24:17;;;;;;;65.67;10.03;;;9.50;1.00;;;;;;5053697;28;20482;-71
2022/11/02 01:26:45;;;;;;;64.40;9.13;;;9.50;1.00;;;;;;5053976;28;20471;-70
2022/11/02 01:29:12;;;;;;;67.60;9.30;;;9.60;1.00;;;;;;5052965;28;20823;-71
2022/11/02 01:31:39;;;;;;;65.82;9.55;;;9.70;1.00;;;;;;5053598;28;20444;-70
2022/11/02 01:34:06;;;;;;;65.83;10.47;;;9.70;1.00;;;;;;5053421;28;20216;-70
2022/11/02 01:36:33;;;;;;;65.17;8.50;;;9.70;1.00;;;;;;5053639;28;20460;-70
2022/11/02 01:39:00;;;;;;;65.43;9.97;;;9.60;1.00;;;;;;5052901;28;20602;-71
2022/11/02 01:41:26;;;;;;;65.53;10.40;;;9.70;1.00;;;;;;5053791;28;20479;-70
2022/11/02 01:43:57;;;;;;;69.70;9.90;;;9.70;1.00;;;;;;5053243;28;20482;-70
2022/11/02 01:46:30;;;;;;;65.30;9.10;;;9.70;1.00;;;;;;5053538;28;20452;-71
2022/11/02 01:49:02;;;;;;;64.47;9.17;;;9.80;1.00;;;;;;5051700;28;20544;-70
2022/11/02 01:51:33;;;;;;;65.50;8.53;;;9.90;1.00;;;;;;5053607;28;20518;-70
2022/11/02 01:54:07;;;;;;;66.47;9.03;;;9.90;1.00;;;;;;5053221;28;20536;-70
2022/11/02 01:56:36;;;;;;;66.20;9.33;;;9.90;1.00;;;;;;5053073;28;20499;-70
2022/11/02 01:59:09;;;;;;;64.57;9.93;;;10.00;1.00;;;;;;5052626;28;20458;-70
2022/11/02 02:01:35;;;;;;;67.50;8.67;;;10.00;1.00;;;;;;5053263;28;20451;-71
2022/11/02 02:04:03;;;;;;;64.63;8.60;;;10.00;1.00;;;;;;5052885;28;21021;-70
2022/11/02 02:06:30;;;;;;;66.27;9.60;;;10.10;1.00;;;;;;5053010;28;20456;-71
2022/11/02 02:09:00;;;;;;;66.30;9.07;;;9.90;1.00;;;;;;5052093;28;20959;-71
2022/11/02 02:11:29;;;;;;;66.33;8.77;;;9.80;1.00;;;;;;5052927;28;20453;-70
2022/11/02 02:14:00;;;;;;;64.57;8.90;;;9.90;1.00;;;;;;5052875;28;20453;-71
2022/11/02 02:16:49;;;;;;;64.37;8.60;;;10.00;1.00;;;;;;5052856;28;20553;-70
2022/11/02 02:19:38;;;;;;;65.60;8.47;;;10.10;1.00;;;;;;5051956;28;20453;-70
2022/11/02 02:22:36;;;;;;;67.80;9.13;;;10.10;1.00;;;;;;5052930;28;20454;-70
2022/11/02 02:25:21;;;;;;;62.87;8.50;;;10.00;1.00;;;;;;5052579;28;20476;-70
2022/11/02 02:28:04;;;;;;;65.73;8.30;;;9.70;1.00;;;;;;5052663;28;20483;-71
2022/11/02 02:30:37;;;;;;;64.70;8.10;;;9.80;1.00;;;;;;5052045;28;20768;-71
2022/11/02 02:33:09;;;;;;;63.20;8.00;;;9.90;1.00;;;;;;5049061;28;20464;-71
2022/11/02 02:35:41;;;;;;;63.43;7.37;;;9.90;1.00;;;;;;5052104;28;20469;-71
2022/11/02 02:38:11;;;;;;;63.07;7.70;;;9.80;1.00;;;;;;5052422;28;20490;-71
2022/11/02 02:40:43;;;;;;;62.30;7.10;;;9.80;1.00;;;;;;5051803;28;20825;-71
2022/11/02 02:43:15;;;;;;;63.50;8.10;;;9.90;1.00;;;;;;5052385;28;20210;-70
2022/11/02 02:45:45;;;;;;;61.90;7.23;;;9.90;1.00;;;;;;5052197;28;20490;-70
2022/11/02 02:48:17;;;;;;;61.90;6.90;;;9.90;1.00;;;;;;5052248;28;20472;-71
2022/11/02 02:50:48;;;;;;;64.13;7.43;;;9.80;1.00;;;;;;5051434;28;20448;-71
2022/11/02 02:53:16;;;;;;;62.83;7.03;;;9.90;1.00;;;;;;5052215;28;20445;-70
2022/11/02 02:55:46;;;;;;;70.70;7.53;;;9.90;1.00;;;;;;5052186;28;20444;-71
2022/11/02 02:58:18;;;;;;;62.77;7.43;;;9.80;1.00;;;;;;5052322;28;20475;-70
2022/11/02 03:00:45;;;;;;;62.27;7.43;;;9.60;1.00;;;;;;5051341;28;20798;-71
2022/11/02 03:03:17;;;;;;;65.00;8.20;;;9.30;1.00;;;;;;5051924;28;20465;-71
2022/11/02 03:05:59;;;;;;;62.00;7.27;;;9.00;1.00;;;;;;5051791;28;20496;-71
2022/11/02 03:08:25;;;;;;;63.77;8.10;;;8.90;1.00;;;;;;5051670;28;20985;-71
2022/11/02 03:10:59;;;;;;;61.90;7.13;;;8.60;1.00;;;;;;5051483;28;20449;-71
2022/11/02 03:13:38;;;;;;;62.00;7.60;;;8.60;1.00;;;;;;5051857;28;20456;-71
2022/11/02 03:16:17;;;;;;;63.90;7.57;;;8.80;1.00;;;;;;5051891;28;20448;-70
2022/11/02 03:18:49;;;;;;;62.47;7.23;;;9.20;1.00;;;;;;5051465;28;20802;-71
2022/11/02 03:21:24;;;;;;;62.17;7.07;;;9.30;1.00;;;;;;5052151;28;20452;-72
2022/11/02 03:23:55;;;;;;;63.13;8.10;;;9.60;1.00;;;;;;5052092;28;20447;-71
2022/11/02 03:26:27;;;;;;;63.27;7.00;;;9.80;1.00;;;;;;5052171;28;20491;-72
2022/11/02 03:29:02;;;;;;;63.47;6.83;;;9.60;1.00;;;;;;5051266;28;20452;-71
2022/11/02 03:31:37;;;;;;;63.50;7.20;;;9.90;1.00;;;;;;5051680;28;20441;-71
2022/11/02 03:34:15;;;;;;;63.57;7.50;;;10.00;1.00;;;;;;5051750;28;20467;-71
2022/11/02 03:36:46;;;;;;;61.77;6.90;;;10.10;1.00;;;;;;5051716;28;20472;-71
2022/11/02 03:39:18;;;;;;;62.37;7.37;;;10.00;1.00;;;;;;5050863;28;20460;-71
2022/11/02 03:41:46;;;;;;;66.53;7.30;;;10.10;1.00;;;;;;5051479;28;20468;-71
2022/11/02 03:44:19;;;;;;;63.17;6.90;;;10.00;1.00;;;;;;5051370;28;20470;-71
2022/11/02 03:46:47;;;;;;;62.53;7.47;;;10.10;1.00;;;;;;5051390;28;20473;-71
2022/11/02 03:49:18;;;;;;;64.80;6.73;;;10.10;1.00;;;;;;5050701;28;20205;-71
2022/11/02 03:51:47;;;;;;;63.93;7.70;;;10.20;1.00;;;;;;5051613;28;20460;-71
2022/11/02 03:54:21;;;;;;;63.60;7.50;;;9.90;1.00;;;;;;5051366;28;20451;-71
2022/11/02 03:56:51;;;;;;;65.30;7.47;;;9.80;1.00;;;;;;5051411;28;21020;-71
2022/11/02 03:59:19;;;;;;;63.67;7.83;;;10.00;1.00;;;;;;5050796;28;20452;-71
2022/11/02 04:01:49;;;;;;;63.63;7.30;;;10.10;1.00;;;;;;5051783;28;20455;-71
2022/11/02 04:04:15;;;;;;;62.90;6.63;;;9.80;1.00;;;;;;5051606;28;20451;-71
2022/11/02 04:06:46;;;;;;;63.47;7.20;;;9.60;1.00;;;;;;5051229;28;20475;-71
2022/11/02 04:09:13;;;;;;;66.80;7.30;;;9.60;1.00;;;;;;5050702;28;20539;-71
2022/11/02 04:14:37;;;;;;;63.10;6.67;;;10.00;1.00;;;;;;5016520;28;20727;-71
2022/11/02 04:19:49;;;;;;;62.10;6.50;;;10.20;1.00;;;;;;5054683;28;20428;-71
2022/11/02 04:25:20;;;;;;;61.50;6.60;;;10.20;1.00;;;;;;5054960;28;20492;-71
2022/11/02 04:27:49;;;;;;;62.87;6.80;;;10.00;1.00;;;;;;5054788;28;20764;-71
2022/11/02 04:30:19;;;;;;;61.33;6.50;;;10.00;1.00;;;;;;5053994;28;20459;-72
2022/11/02 04:35:33;;;;;;;62.40;6.20;;;10.10;1.00;;;;;;5054741;28;20911;-71
2022/11/02 04:40:45;;;;;;;62.50;6.30;;;10.20;1.00;;;;;;5054328;28;20505;-71
2022/11/02 04:43:12;;;;;;;60.80;5.87;;;10.20;1.00;;;;;;5054732;28;20822;-72
2022/11/02 04:45:40;;;;;;;62.90;6.50;;;10.20;1.00;;;;;;5054223;28;21019;-71
2022/11/02 04:48:08;;;;;;;62.27;6.83;;;10.10;1.00;;;;;;5054450;28;20473;-71
2022/11/02 04:50:36;;;;;;;63.90;6.47;;;10.10;1.00;;;;;;5053725;28;20474;-71
2022/11/02 04:53:05;;;;;;;61.10;6.50;;;10.10;1.00;;;;;;5054665;28;20553;-71
2022/11/02 04:55:33;;;;;;;61.47;6.90;;;10.10;1.00;;;;;;5054488;28;20506;-72
2022/11/02 04:58:00;;;;;;;63.27;6.80;;;10.10;1.00;;;;;;5054452;28;20831;-70
2022/11/02 05:00:27;;;;;;;62.17;6.95;;;9.90;1.00;;;;;;5053662;28;20444;-71
2022/11/02 05:02:55;;;;;;;62.57;6.00;;;9.90;1.00;;;;;;5054129;28;20670;-71
2022/11/02 05:05:22;;;;;;;62.45;6.65;;;9.80;1.00;;;;;;5054316;28;20583;-71
2022/11/02 05:07:48;;;;;;;61.67;6.50;;;9.80;1.00;;;;;;5054066;28;20226;-71
2022/11/02 05:10:15;;;;;;;61.55;6.10;;;9.80;1.00;;;;;;5053435;28;20450;-71
2022/11/02 05:12:42;;;;;;;62.67;6.67;;;9.80;1.00;;;;;;5054457;28;20235;-71
2022/11/02 05:15:10;;;;;;;65.05;6.75;;;9.80;1.00;;;;;;5053996;28;20444;-71
2022/11/02 05:17:36;;;;;;;62.90;6.65;;;9.80;1.00;;;;;;5053528;28;20228;-71
2022/11/02 05:20:07;;;;;;;61.93;7.07;;;9.80;1.00;;;;;;5053413;28;20641;-71
2022/11/02 05:22:34;;;;;;;63.33;7.43;;;9.50;1.00;;;;;;5053886;28;20458;-70
2022/11/02 05:25:00;;;;;;;62.95;7.20;;;8.90;1.00;;;;;;5054143;28;20233;-71
2022/11/02 05:27:27;;;;;;;63.75;7.55;;;8.90;1.00;;;;;;5053666;28;20222;-71
2022/11/02 05:29:54;;;;;;;61.97;7.20;;;8.70;1.00;;;;;;5052924;28;20210;-71
2022/11/02 05:32:21;;;;;;;61.40;6.63;;;8.50;1.00;;;;;;5053886;28;20217;-71
2022/11/02 05:34:48;;;;;;;62.70;7.27;;;8.50;1.00;;;;;;5053606;28;20470;-71
2022/11/02 05:37:16;;;;;;;67.35;7.50;;;8.60;1.00;;;;;;5053480;28;20479;-71
2022/11/02 05:39:42;;;;;;;62.08;6.53;;;9.00;1.00;;;;;;5052829;28;20232;-71
2022/11/02 05:42:09;;;;;;;61.43;7.00;;;9.30;1.00;;;;;;5053579;28;20205;-71
2022/11/02 05:44:36;;;;;;;63.27;6.43;;;9.50;1.00;;;;;;5053404;28;20941;-71
2022/11/02 05:47:03;;;;;;;62.43;6.80;;;9.60;1.00;;;;;;5053291;28;20464;-71
2022/11/02 05:49:30;;;;;;;63.15;7.35;;;9.50;1.00;;;;;;5052927;28;20459;-71
2022/11/02 05:51:57;;;;;;;61.50;6.87;;;9.50;1.00;;;;;;5053480;28;20693;-71
2022/11/02 05:54:25;;;;;;;62.90;6.60;;;9.50;1.00;;;;;;5053375;28;20805;-71
2022/11/02 05:56:52;;;;;;;61.63;6.95;;;9.50;1.00;;;;;;5053248;28;20464;-71
2022/11/02 05:59:19;;;;;;;64.10;7.37;;;9.50;1.00;;;;;;5052350;28;20210;-71
2022/11/02 06:01:46;;;;;;;61.97;7.10;;;9.50;1.00;;;;;;5053191;28;20636;-71
2022/11/02 06:04:12;;;;;;;64.50;7.20;;;9.50;1.00;;;;;;5053198;28;20456;-71
2022/11/02 06:06:39;;;;;;;63.47;6.83;;;9.50;1.00;;;;;;5053035;28;20492;-70
2022/11/02 06:09:06;;;;;;;62.97;7.40;;;9.40;1.00;;;;;;5052554;28;20457;-72
2022/11/02 06:11:34;;;;;;;62.90;6.90;;;9.50;1.00;;;;;;5052996;28;20820;-71
2022/11/02 06:14:02;;;;;;;62.27;7.57;;;9.40;1.00;;;;;;5052776;28;20456;-71
2022/11/02 06:16:29;;;;;;;61.77;7.00;;;9.50;1.00;;;;;;5052947;28;20535;-71
2022/11/02 06:18:56;;;;;;;63.30;5.97;;;9.50;1.00;;;;;;5052174;28;20448;-71
2022/11/02 06:21:23;;;;;;;64.73;7.07;;;9.50;1.00;;;;;;5052687;28;20449;-71
2022/11/02 06:23:50;;;;;;;61.43;6.77;;;9.30;1.00;;;;;;5052752;28;20448;-71
2022/11/02 06:26:17;;;;;;;67.23;7.47;;;9.50;1.00;;;;;;5052775;28;20510;-71
2022/11/02 06:28:45;;;;;;;64.87;7.57;;;9.50;1.00;;;;;;5052023;28;20452;-71
2022/11/02 06:31:12;;;;;;;62.27;6.97;;;9.30;1.00;;;;;;5052741;28;20971;-71
2022/11/02 06:33:39;;;;;;;66.23;8.57;;;9.40;1.00;;;;;;5052163;28;20832;-71
2022/11/02 06:36:07;;;;;;;62.83;6.93;;;9.50;1.00;;;;;;5052193;28;20453;-71
2022/11/02 06:38:34;;;;;;;65.50;7.60;;;9.70;1.00;;;;;;5051629;28;20511;-71
2022/11/02 06:41:05;;;;;;;63.53;7.40;;;10.00;1.00;;;;;;5052298;28;20454;-71
2022/11/02 06:43:32;;;;;;;62.67;7.30;;;9.90;1.00;;;;;;5052492;28;20527;-71
2022/11/02 06:46:00;;;;;;;64.20;7.90;;;10.10;1.00;;;;;;5052379;28;20494;-71
2022/11/02 06:48:28;;;;;;;63.23;7.10;;;10.20;1.00;;;;;;5052145;28;20472;-72
2022/11/02 06:50:54;;;;;;;62.50;7.30;;;10.40;1.00;;;;;;5051833;28;20452;-71
2022/11/02 06:53:21;;;;;;;63.67;7.40;;;10.50;1.00;;;;;;5052115;28;20456;-71
2022/11/02 06:55:52;;;;;;;64.40;8.03;;;10.70;1.00;;;;;;5052066;28;20564;-71
2022/11/02 06:58:19;;;;;;;63.60;7.60;;;11.00;1.00;;;;;;5051924;28;20466;-71
2022/11/02 07:00:46;;;;;;;67.13;7.90;;;11.00;1.00;;;;;;5051361;28;20453;-72
2022/11/02 07:03:14;;;;;;;63.20;7.60;;;11.20;1.00;;;;;;5052072;28;20455;-71
2022/11/02 07:05:41;;;;;;;66.80;6.87;;;11.40;1.00;;;;;;5051920;28;20486;-71
2022/11/02 07:08:08;;;;;;;62.30;6.83;;;11.50;1.00;;;;;;5051681;28;20472;-71
2022/11/02 07:10:35;;;;;;;64.00;6.70;;;11.70;1.00;;;;;;5051410;28;20822;-71
2022/11/02 07:13:02;;;;;;;62.33;6.90;;;11.70;1.00;;;;;;5052099;28;20453;-71
2022/11/02 07:15:29;;;;;;;65.93;7.30;;;11.80;1.00;;;;;;5051915;28;20442;-71
2022/11/02 07:17:55;;;;;;;65.73;7.37;;;11.90;1.00;;;;;;5051731;28;20482;-71
2022/11/02 07:20:23;;;;;;;67.00;8.27;;;12.10;1.00;;;;;;5051096;28;20457;-71
2022/11/02 07:22:54;;;;;;;63.57;6.23;;;12.20;1.00;;;;;;5051996;28;20751;-71
2022/11/02 07:25:21;;;;;;;64.40;7.63;;;12.30;1.00;;;;;;5051806;28;20820;-72
2022/11/02 07:27:48;;;;;;;68.60;7.30;;;12.30;1.00;;;;;;5051678;28;20479;-72
2022/11/02 07:30:15;;;;;;;64.00;7.40;;;12.50;1.00;;;;;;5051187;28;20448;-71
2022/11/02 07:32:42;;;;;;;63.30;7.20;;;12.70;1.00;;;;;;5051742;28;20464;-71
2022/11/02 07:35:11;;;;;;;63.10;7.90;;;12.90;1.00;;;;;;5051392;28;20554;-71
2022/11/02 07:37:40;;;;;;;63.50;7.40;;;13.20;1.00;;;;;;5051738;28;20477;-71
2022/11/02 07:40:09;;;;;;;63.03;7.37;;;13.30;1.00;;;;;;5050763;28;20941;-71
2022/11/02 07:42:36;;;;;;;63.50;7.70;;;13.60;1.00;;;;;;5051900;28;20452;-71
2022/11/02 07:45:03;;;;;;;64.03;7.47;;;13.80;1.00;;;;;;5051537;28;20947;-71
2022/11/02 07:47:30;;;;;;;63.80;7.70;;;14.00;1.00;;;;;;5053815;28;20496;-71
2022/11/02 07:49:58;;;;;;;65.20;8.50;;;14.30;1.00;;;;;;5054722;28;20448;-71
2022/11/02 07:52:25;;;;;;;64.00;8.20;;;14.30;1.00;;;;;;5055462;28;20452;-72
2022/11/02 07:54:53;;;;;;;70.80;7.77;;;14.30;1.00;;;;;;5055477;28;20513;-71
2022/11/02 07:57:20;;;;;;;63.70;6.87;;;14.50;1.00;;;;;;5055484;28;20464;-71
2022/11/02 07:59:47;;;;;;;63.73;7.20;;;14.60;1.00;;;;;;5055006;28;20805;-71
2022/11/02 08:02:13;;;;;;;63.33;7.43;;;14.70;1.00;;;;;;5055282;28;20440;-72
2022/11/02 08:04:40;;;;;;;66.60;7.03;;;14.80;1.00;;;;;;5055641;28;20444;-71
2022/11/02 08:07:07;;;;;;;65.67;7.80;;;14.90;1.00;;;;;;5055527;28;20495;-71
2022/11/02 08:09:34;;;;;;;65.60;6.90;;;15.00;1.00;;;;;;5054438;28;20460;-71
2022/11/02 08:12:02;;;;;;;67.23;7.23;;;15.00;1.00;;;;;;5055266;28;20474;-71
2022/11/02 08:14:29;;;;;;;63.27;7.03;;;15.10;1.00;;;;;;5055137;28;20452;-71
2022/11/02 08:16:55;;;;;;;63.37;7.07;;;14.90;1.00;;;;;;5054966;28;21041;-72
2022/11/02 08:19:22;;;;;;;66.57;7.60;;;14.70;1.00;;;;;;5054555;28;20499;-72
2022/11/02 08:21:49;;;;;;;63.20;7.37;;;15.00;1.00;;;;;;5055004;28;20467;-72
2022/11/02 08:24:15;;;;;;;64.77;7.10;;;15.40;1.00;;;;;;5054839;28;20539;-72
2022/11/02 08:26:42;;;;;;;65.40;7.10;;;15.80;1.00;;;;;;5055035;28;20484;-72
2022/11/02 08:29:10;;;;;;;63.57;7.00;;;16.20;1.00;;;;;;5054124;28;20458;-72
2022/11/02 08:31:37;;;;;;;66.43;7.20;;;16.60;1.00;;;;;;5054829;28;20455;-72
2022/11/02 08:34:04;;;;;;;65.30;6.70;;;16.90;1.00;;;;;;5054863;28;20822;-72
2022/11/02 08:36:31;;;;;;;64.57;6.80;;;17.20;1.00;;;;;;5054856;28;20448;-71
2022/11/02 08:38:57;;;;;;;64.70;7.33;;;17.50;1.00;;;;;;5054175;28;20450;-72
2022/11/02 08:41:24;;;;;;;63.37;6.80;;;17.70;1.00;;;;;;5054890;28;20452;-72
2022/11/02 08:43:51;;;;;;;64.40;6.33;;;18.00;1.00;;;;;;5054524;28;20547;-72
2022/11/02 08:46:19;;;;;;;62.90;5.70;;;18.20;1.00;;;;;;5054446;28;21008;-71
2022/11/02 08:48:46;;;;;;;64.37;6.70;;;18.30;1.00;;;;;;5053952;28;20444;-71
2022/11/02 08:51:13;;;;;;;66.50;5.80;;;18.30;1.00;;;;;;5054895;28;20474;-72
2022/11/02 08:53:40;;;;;;;64.93;4.90;;;17.90;1.00;;;;;;5054494;28;20443;-71
2022/11/02 08:56:07;;;;;;;68.20;6.07;;;17.60;1.00;;;;;;5054401;28;20448;-72
2022/11/02 08:58:34;;;;;;;63.97;4.90;;;17.70;1.00;;;;;;5052751;28;20472;-72
2022/11/02 09:01:00;;;;;;;80.10;6.60;;;17.80;1.00;;;;;;5054486;28;20458;-72
2022/11/02 09:03:29;;;;;;;63.10;5.33;;;17.50;1.00;;;;;;5054193;28;20454;-72
2022/11/02 09:06:01;;;;;;;65.57;5.20;;;17.60;1.00;;;;;;5054241;28;20505;-72
2022/11/02 09:08:29;;;;;;;63.27;4.83;;;17.70;1.00;;;;;;5053863;28;20468;-73
2022/11/02 09:10:59;;;;;;;65.57;5.53;;;17.80;1.00;;;;;;5053643;28;20448;-71
2022/11/02 09:13:26;;;;;;;68.63;5.60;;;18.00;1.00;;;;;;5054292;28;20933;-71
2022/11/02 09:15:55;;;;;;;64.10;5.60;;;18.30;1.00;;;;;;5053986;28;20456;-72
2022/11/02 09:18:22;;;;;;;66.33;5.20;;;18.40;1.00;;;;;;5053828;28;20468;-72
2022/11/02 09:20:50;;;;;;;62.90;5.80;;;18.50;1.00;;;;;;5053360;28;20452;-72
2022/11/02 09:23:18;;;;;;;64.17;5.30;;;18.50;1.00;;;;;;5053845;28;20441;-72
2022/11/02 09:25:45;;;;;;;61.80;4.57;;;18.50;1.00;;;;;;5053918;28;20466;-72
2022/11/02 09:28:14;;;;;;;62.10;4.70;;;18.50;1.00;;;;;;5053866;28;20468;-72
2022/11/02 09:30:42;;;;;;;67.53;5.43;;;18.50;1.00;;;;;;5053265;28;20459;-72
2022/11/02 09:33:09;;;;;;;73.20;6.37;;;18.50;1.00;;;;;;5053836;28;20444;-72
2022/11/02 09:35:39;;;;;;;63.13;4.80;;;18.60;1.00;;;;;;5053630;28;20441;-72
2022/11/02 09:38:07;;;;;;;74.30;5.27;;;18.30;1.00;;;;;;5053633;28;20832;-73
2022/11/02 09:40:37;;;;;;;63.77;5.50;;;18.20;1.00;;;;;;5053112;28;20452;-73
2022/11/02 09:43:12;;;;;;;62.87;5.10;;;18.30;1.00;;;;;;5053722;28;20448;-72
2022/11/02 09:45:53;;;;;;;65.70;4.47;;;18.50;1.00;;;;;;5053594;28;20981;-72
2022/11/02 09:48:25;;;;;;;66.00;5.70;;;18.50;1.00;;;;;;5053432;28;20466;-72
2022/11/02 09:50:58;;;;;;;65.50;5.30;;;18.50;1.00;;;;;;5053111;28;20824;-72
2022/11/02 09:53:31;;;;;;;64.80;4.40;;;18.80;1.00;;;;;;5053468;28;20809;-72
2022/11/02 09:56:01;;;;;;;62.70;4.70;;;18.90;1.00;;;;;;5053409;28;20444;-72
2022/11/02 09:58:39;;;;;;;67.07;5.00;;;18.30;1.00;;;;;;5052956;28;20482;-73
2022/11/02 10:01:19;;;;;;;65.77;4.70;;;18.70;1.00;;;;;;5053135;28;20932;-72
2022/11/02 10:04:06;;;;;;;67.70;5.43;;;19.30;1.00;;;;;;5053363;28;20459;-72
2022/11/02 10:06:36;;;;;;;59.87;4.20;;;19.60;1.00;;;;;;5053088;28;20858;-72
2022/11/02 10:09:13;;;;;;;66.93;5.33;;;19.80;99.90;;;;;;5051382;28;20444;-72
2022/11/02 10:11:51;;;;;;;63.97;5.13;;;20.00;99.90;;;;;;5053211;28;20452;-72
2022/11/02 10:14:23;;;;;;;64.60;4.60;;;20.00;99.90;;;;;;5053303;28;20474;-72
2022/11/02 10:16:55;;;;;;;62.80;4.87;;;19.90;99.90;;;;;;5052829;28;20976;-72
2022/11/02 10:19:21;;;;;;;66.53;4.73;;;19.30;99.90;;;;;;5052133;28;20452;-72
2022/11/02 10:21:51;;;;;;;68.67;4.43;;;19.30;99.90;;;;;;5052563;28;20949;-72
2022/11/02 10:24:25;;;;;;;62.37;4.80;;;19.60;99.90;;;;;;5053191;28;20448;-72
2022/11/02 10:26:56;;;;;;;60.87;4.30;;;19.50;99.90;;;;;;5052751;28;20495;-72
2022/11/02 10:29:37;;;;;;;65.47;4.40;;;19.40;99.90;;;;;;5052262;28;21025;-72
2022/11/02 10:32:05;;;;;;;61.80;3.87;;;19.20;99.90;;;;;;5052637;28;20455;-72
2022/11/02 10:34:34;;;;;;;69.50;5.17;;;19.30;99.90;;;;;;5052568;28;20472;-73
2022/11/02 10:37:16;;;;;;;66.70;4.47;;;19.10;99.90;;;;;;5052732;28;20471;-72
2022/11/02 10:39:54;;;;;;;60.50;3.80;;;19.40;99.90;;;;;;5051949;28;20458;-72
2022/11/02 10:42:48;;;;;;;61.23;3.93;;;19.60;99.90;;;;;;5052495;28;20828;-72
2022/11/02 10:45:53;;;;;;;61.30;3.97;;;19.50;99.90;;;;;;5052571;28;20453;-72
2022/11/02 10:48:31;;;;;;;66.10;4.33;;;19.50;99.90;;;;;;5041497;28;20500;-72
2022/11/02 10:51:07;;;;;;;61.60;3.73;;;19.80;99.90;;;;;;5052108;28;20476;-72
2022/11/02 10:53:36;;;;;;;61.40;4.10;;;19.90;99.90;;;;;;5052407;28;20444;-72
2022/11/02 10:56:12;;;;;;;60.20;3.80;;;19.70;99.90;;;;;;5052419;28;20448;-72
2022/11/02 10:58:44;;;;;;;62.20;4.30;;;19.80;99.90;;;;;;5051419;28;20546;-72
2022/11/02 11:01:13;;;;;;;65.10;4.30;;;20.20;99.90;;;;;;5052146;28;21015;-72
2022/11/02 11:03:55;;;;;;;63.60;4.10;;;20.00;99.90;;;;;;5052455;28;20547;-72
2022/11/02 11:06:23;;;;;;;66.87;3.70;;;19.70;99.90;;;;;;5051990;28;20492;-73
2022/11/02 11:08:52;;;;;;;64.70;3.93;;;19.20;99.90;;;;;;5051118;28;20456;-73
2022/11/02 11:11:22;;;;;;;60.73;3.87;;;19.20;99.90;;;;;;5052093;28;20448;-72
2022/11/02 11:14:01;;;;;;;62.60;4.00;;;19.50;99.90;;;;;;5051868;28;20456;-72
2022/11/02 11:16:40;;;;;;;61.27;3.57;;;19.80;99.90;;;;;;5051799;28;20452;-72
2022/11/02 11:19:21;;;;;;;62.47;3.87;;;20.10;99.90;;;;;;5051262;28;20471;-72
2022/11/02 11:21:49;;;;;;;61.80;4.30;;;20.60;99.90;;;;;;5051639;28;20448;-72
2022/11/02 11:24:22;;;;;;;63.20;4.40;;;21.10;99.90;;;;;;5051647;28;20452;-72
2022/11/02 11:27:03;;;;;;;62.47;3.60;;;21.40;99.90;;;;;;5051805;28;20492;-72
2022/11/02 11:29:34;;;;;;;61.70;3.77;;;21.20;99.90;;;;;;5051097;28;20452;-72
2022/11/02 11:32:02;;;;;;;64.37;4.10;;;21.00;99.90;;;;;;5051769;28;20448;-72
2022/11/02 11:34:32;;;;;;;61.80;3.70;;;21.20;99.90;;;;;;5051671;28;20498;-72
2022/11/02 11:37:09;;;;;;;63.10;3.90;;;21.90;99.90;;;;;;5051714;28;20553;-72
2022/11/02 11:39:37;;;;;;;61.27;3.87;;;23.20;99.90;;;;;;5051035;28;20455;-73
2022/11/02 11:42:15;;;;;;;62.90;3.80;;;24.60;99.90;;;;;;5051534;28;20945;-72
2022/11/02 11:44:45;;;;;;;66.30;4.30;;;;;;;;;;5051747;28;20447;-72
2022/11/02 11:47:13;;;;;;;62.73;3.80;;;27.70;99.90;;;;;;5051274;28;20499;-72
2022/11/02 11:49:47;;;;;;;62.67;4.30;;;30.40;99.90;;;;;;5050992;28;20530;-73
2022/11/02 11:52:19;;;;;;;60.70;3.70;;;33.50;99.90;;;;;;5051694;28;20456;-73
2022/11/02 11:54:53;;;;;;;60.77;3.53;;;34.80;99.90;;;;;;5051645;28;20445;-73
2022/11/02 11:57:26;;;;;;;60.60;3.50;;;35.90;99.90;;;;;;5051531;28;20463;-73
2022/11/02 11:59:57;;;;;;;63.57;4.10;;;37.80;99.90;;;;;;5050959;28;20808;-73
2022/11/02 12:02:26;;;;;;;60.20;3.20;;;38.90;99.90;;;;;;5051716;28;20553;-73
2022/11/02 12:04:59;;;;;;;60.40;3.63;;;38.70;99.90;;;;;;5051429;28;20444;-71
2022/11/02 12:07:48;;;;;;;63.47;3.57;;;38.30;99.90;;;;;;5051257;28;21000;-71
2022/11/02 12:10:21;;;;;;;63.43;3.40;;;39.50;99.90;;;;;;5050479;28;20456;-72
2022/11/02 12:13:06;;;;;;;64.70;3.87;;;38.50;99.90;;;;;;5051579;28;20824;-71
2022/11/02 12:15:46;;;;;;;60.80;3.60;;;35.00;99.90;;;;;;5051557;28;20455;-71
2022/11/02 12:18:33;;;;;;;62.97;3.33;;;33.30;99.90;;;;;;5051147;28;20460;-71
2022/11/02 12:21:14;;;;;;;61.70;3.67;;;31.60;99.90;;;;;;5051380;28;20463;-73
2022/11/02 12:24:03;;;;;;;60.57;3.83;;;28.60;99.90;;;;;;5051606;28;20456;-72
2022/11/02 12:26:40;;;;;;;62.17;4.27;;;27.30;99.90;;;;;;5051179;28;20459;-73
2022/11/02 12:29:22;;;;;;;60.77;4.03;;;26.40;99.90;;;;;;5050064;28;20454;-73
2022/11/02 12:31:58;;;;;;;60.40;3.60;;;26.10;99.90;;;;;;5051276;28;20452;-73
2022/11/02 12:34:48;;;;;;;60.70;3.87;;;27.30;99.90;;;;;;5054696;28;20847;-72
2022/11/02 12:37:22;;;;;;;63.40;3.73;;;31.10;99.90;;;;;;5054880;28;20475;-73
2022/11/02 12:40:03;;;;;;;61.07;3.80;;;34.90;99.90;;;;;;5054379;28;20447;-73
2022/11/02 12:42:34;;;;;;;64.50;4.13;;;36.20;99.90;;;;;;5054856;28;20451;-73
2022/11/02 12:45:21;;;;;;;62.30;3.80;;;34.70;99.90;;;;;;5054722;28;20819;-73
2022/11/02 12:47:55;;;;;;;60.40;3.80;;;33.00;99.90;;;;;;5054407;28;20495;-73
2022/11/02 12:50:31;;;;;;;61.87;4.07;;;31.80;99.90;;;;;;5053932;28;20815;-73
2022/11/02 12:53:20;;;;;;;62.73;3.50;;;32.90;99.90;;;;;;5054479;28;20459;-73
2022/11/02 12:55:50;;;;;;;63.97;4.40;;;35.00;99.90;;;;;;5054498;28;20459;-73
2022/11/02 12:58:21;;;;;;;62.90;3.87;;;36.70;99.90;;;;;;5054071;28;20470;-73
2022/11/02 13:00:54;;;;;;;62.30;3.87;;;37.60;99.90;;;;;;5053675;28;20937;-74
2022/11/02 13:03:34;;;;;;;67.13;4.13;;;39.10;99.90;;;;;;5054466;28;20444;-73
2022/11/02 13:06:06;;;;;;;63.27;3.60;;;39.40;99.90;;;;;;5054206;28;20454;-72
2022/11/02 13:08:39;;;;;;;59.07;2.87;;;39.20;99.90;;;;;;5053221;28;20503;-72
2022/11/02 13:11:10;;;;;;;62.53;3.40;;;38.80;99.90;;;;;;5054472;28;20459;-72
2022/11/02 13:13:42;;;;;;;60.50;3.73;;;39.80;99.90;;;;;;5054132;28;20836;-72
2022/11/02 13:16:13;;;;;;;60.57;3.53;;;38.90;99.90;;;;;;5054219;28;20452;-72
2022/11/02 13:18:45;;;;;;;59.00;3.00;;;39.10;99.90;;;;;;5053224;28;20472;-72